createdAt,value
2022-11-12T00:01:45.037Z,15.10
2022-11-12T00:04:30.353Z,15.57
2022-11-12T00:07:16.097Z,14.60
2022-11-12T00:10:01.752Z,13.60
2022-11-12T00:12:49.321Z,16.23
2022-11-12T00:15:34.997Z,13.67
2022-11-12T00:18:20.390Z,14.03
2022-11-12T00:21:05.857Z,12.87
2022-11-12T00:23:51.267Z,14.80
2022-11-12T00:26:36.283Z,14.07
2022-11-12T00:29:21.340Z,14.93
2022-11-12T00:32:08.228Z,14.07
2022-11-12T00:34:53.867Z,15.07
2022-11-12T00:37:39.143Z,14.47
2022-11-12T00:40:25.307Z,14.53
2022-11-12T00:43:10.435Z,14.27
2022-11-12T00:45:55.801Z,14.70
2022-11-12T00:48:41.357Z,15.47
2022-11-12T00:51:27.539Z,15.60
2022-11-12T00:54:12.636Z,15.53
2022-11-12T00:56:57.826Z,13.93
2022-11-12T00:59:43.258Z,12.83
2022-11-12T01:02:30.525Z,11.93
2022-11-12T01:05:16.089Z,14.20
2022-11-12T01:08:01.492Z,11.43
2022-11-12T01:10:46.527Z,12.37
2022-11-12T01:13:32.821Z,11.93
2022-11-12T01:16:20.596Z,12.17
2022-11-12T01:19:09.570Z,11.80
2022-11-12T01:21:55.396Z,12.17
2022-11-12T01:24:40.486Z,11.80
2022-11-12T01:27:25.886Z,11.53
2022-11-12T01:30:11.510Z,11.53
2022-11-12T01:32:56.997Z,11.23
2022-11-12T01:35:42.316Z,9.50
2022-11-12T01:38:28.183Z,10.20
2022-11-12T01:41:17.691Z,10.93
2022-11-12T01:44:17.966Z,9.10
2022-11-12T01:47:13.916Z,8.60
2022-11-12T01:50:14.008Z,8.97
2022-11-12T01:53:07.653Z,9.70
2022-11-12T01:55:53.705Z,9.23
2022-11-12T01:58:41.499Z,8.50
2022-11-12T02:01:27.795Z,8.50
2022-11-12T02:04:13.158Z,8.60
2022-11-12T02:06:58.929Z,8.80
2022-11-12T02:09:44.652Z,8.87
2022-11-12T02:12:49.443Z,8.73
2022-11-12T02:15:34.822Z,7.60
2022-11-12T02:18:20.081Z,8.83
2022-11-12T02:21:08.858Z,7.67
2022-11-12T02:23:58.787Z,8.00
2022-11-12T02:26:47.461Z,7.80
2022-11-12T02:29:33.149Z,8.07
2022-11-12T02:32:18.392Z,7.73
2022-11-12T02:35:04.115Z,8.43
2022-11-12T02:37:49.472Z,7.90
2022-11-12T02:40:35.229Z,7.77
2022-11-12T02:43:21.015Z,8.50
2022-11-12T02:46:06.520Z,7.93
2022-11-12T02:48:51.795Z,7.53
2022-11-12T02:51:36.826Z,7.57
2022-11-12T02:54:21.925Z,7.53
2022-11-12T02:57:07.167Z,6.80
2022-11-12T02:59:52.480Z,7.20
2022-11-12T03:02:59.056Z,6.30
2022-11-12T03:05:45.452Z,6.20
2022-11-12T03:08:30.857Z,7.03
2022-11-12T03:11:17.603Z,7.53
2022-11-12T03:14:03.405Z,7.50
2022-11-12T03:16:49.015Z,7.40
2022-11-12T03:19:34.150Z,7.67
2022-11-12T03:22:19.238Z,7.37
2022-11-12T03:25:06.317Z,7.17
2022-11-12T03:28:02.840Z,6.70
2022-11-12T03:30:48.130Z,6.83
2022-11-12T03:33:33.515Z,5.57
2022-11-12T03:36:18.889Z,5.40
2022-11-12T03:39:04.409Z,6.70
2022-11-12T03:41:49.753Z,5.70
2022-11-12T03:44:35.068Z,5.03
2022-11-12T03:47:20.099Z,6.20
2022-11-12T03:50:06.620Z,5.10
2022-11-12T03:52:54.191Z,5.23
2022-11-12T03:55:39.532Z,5.43
2022-11-12T03:58:25.300Z,5.70
2022-11-12T04:01:10.443Z,6.13
2022-11-12T04:03:55.817Z,5.83
2022-11-12T04:06:59.673Z,5.63
2022-11-12T04:09:46.425Z,6.07
2022-11-12T04:12:50.021Z,5.70
2022-11-12T04:15:35.249Z,5.50
2022-11-12T04:18:38.835Z,5.30
2022-11-12T04:21:47.202Z,5.40
2022-11-12T04:24:53.197Z,5.80
2022-11-12T04:27:39.229Z,5.23
2022-11-12T04:30:24.651Z,5.57
2022-11-12T04:33:09.629Z,5.73
2022-11-12T04:35:55.200Z,5.30
2022-11-12T04:38:40.333Z,5.47
2022-11-12T04:41:44.053Z,5.23
2022-11-12T04:44:48.056Z,5.40
2022-11-12T04:47:37.300Z,4.70
2022-11-12T04:50:22.742Z,5.20
2022-11-12T04:53:08.034Z,4.87
2022-11-12T04:55:56.631Z,5.77
2022-11-12T04:58:42.505Z,4.70
2022-11-12T05:01:27.988Z,5.80
2022-11-12T05:04:13.334Z,4.90
2022-11-12T05:06:59.582Z,5.50
2022-11-12T05:09:45.014Z,4.90
2022-11-12T05:12:30.909Z,5.47
2022-11-12T05:15:16.207Z,5.53
2022-11-12T05:18:01.654Z,4.70
2022-11-12T05:20:46.690Z,5.63
2022-11-12T05:23:31.983Z,5.20
2022-11-12T05:26:17.137Z,5.50
2022-11-12T05:29:06.276Z,5.60
2022-11-12T05:31:53.645Z,6.53
2022-11-12T05:34:38.679Z,6.00
2022-11-12T05:37:24.484Z,6.10
2022-11-12T05:40:10.280Z,5.97
2022-11-12T05:42:55.814Z,6.30
2022-11-12T05:45:44.226Z,6.03
2022-11-12T05:48:30.229Z,6.80
2022-11-12T05:51:15.592Z,6.33
2022-11-12T05:54:01.724Z,6.73
2022-11-12T05:56:47.131Z,6.53
2022-11-12T05:59:32.261Z,6.53
2022-11-12T06:02:17.666Z,6.70
2022-11-12T06:05:03.291Z,6.37
2022-11-12T06:07:48.396Z,6.03
2022-11-12T06:10:33.839Z,5.50
2022-11-12T06:13:20.356Z,5.97
2022-11-12T06:16:05.972Z,5.90
2022-11-12T06:18:50.873Z,6.17
2022-11-12T06:21:36.015Z,5.93
2022-11-12T06:24:21.308Z,6.70
2022-11-12T06:27:07.054Z,6.10
2022-11-12T06:29:52.635Z,6.60
2022-11-12T06:32:38.279Z,6.63
2022-11-12T06:35:23.650Z,7.10
2022-11-12T06:38:10.913Z,5.73
2022-11-12T06:40:56.341Z,6.57
2022-11-12T06:43:42.345Z,6.63
2022-11-12T06:46:27.794Z,6.40
2022-11-12T06:49:12.941Z,5.57
2022-11-12T06:51:58.210Z,6.40
2022-11-12T06:54:43.499Z,6.13
2022-11-12T06:57:31.423Z,5.90
2022-11-12T07:00:17.369Z,5.67
2022-11-12T07:03:12.455Z,5.77
2022-11-12T07:05:57.837Z,5.20
2022-11-12T07:08:43.156Z,6.37
2022-11-12T07:11:28.211Z,6.40
2022-11-12T07:14:13.521Z,5.90
2022-11-12T07:16:58.443Z,6.07
2022-11-12T07:19:43.693Z,6.50
2022-11-12T07:22:30.580Z,6.23
2022-11-12T07:25:16.172Z,5.77
2022-11-12T07:28:01.387Z,6.17
2022-11-12T07:30:46.659Z,5.90
2022-11-12T07:33:32.950Z,6.27
2022-11-12T07:36:20.312Z,6.30
2022-11-12T07:39:05.631Z,6.47
2022-11-12T07:41:51.545Z,6.13
2022-11-12T07:44:37.247Z,6.07
2022-11-12T07:47:22.233Z,6.63
2022-11-12T07:50:07.956Z,5.97
2022-11-12T07:52:53.208Z,7.43
2022-11-12T07:55:38.723Z,8.20
2022-11-12T07:58:25.168Z,7.40
2022-11-12T08:01:20.689Z,7.97
2022-11-12T08:04:09.380Z,8.83
2022-11-12T08:06:54.836Z,10.33
2022-11-12T08:09:39.880Z,9.63
2022-11-12T08:12:24.900Z,8.60
2022-11-12T08:15:10.988Z,8.80
2022-11-12T08:17:56.216Z,7.97
2022-11-12T08:20:41.856Z,8.20
2022-11-12T08:23:27.580Z,8.33
2022-11-12T08:26:15.062Z,8.73
2022-11-12T08:29:03.943Z,9.00
2022-11-12T08:31:52.849Z,8.13
2022-11-12T08:34:41.215Z,8.87
2022-11-12T08:37:26.567Z,7.77
2022-11-12T08:40:12.500Z,8.27
2022-11-12T08:43:08.821Z,7.77
2022-11-12T08:45:54.323Z,7.50
2022-11-12T08:48:40.381Z,8.53
2022-11-12T08:51:25.444Z,7.13
2022-11-12T08:54:10.768Z,6.33
2022-11-12T08:56:55.919Z,6.13
2022-11-12T08:59:41.416Z,6.33
2022-11-12T09:02:26.584Z,6.00
2022-11-12T09:05:12.344Z,6.80
2022-11-12T09:08:07.071Z,7.07
2022-11-12T09:10:52.884Z,8.17
2022-11-12T09:13:38.091Z,8.50
2022-11-12T09:16:24.500Z,10.23
2022-11-12T09:19:09.796Z,8.73
2022-11-12T09:21:55.053Z,9.73
2022-11-12T09:24:40.604Z,9.07
2022-11-12T09:27:29.110Z,9.17
2022-11-12T09:30:15.879Z,8.17
2022-11-12T09:33:03.653Z,9.07
2022-11-12T09:35:49.642Z,8.47
2022-11-12T09:38:35.058Z,8.60
2022-11-12T09:41:46.517Z,8.43
2022-11-12T09:44:36.641Z,8.57
2022-11-12T09:47:43.073Z,8.93
2022-11-12T09:50:36.891Z,7.23
2022-11-12T09:53:43.012Z,6.83
2022-11-12T09:56:30.143Z,7.03
2022-11-12T09:59:17.324Z,7.00
2022-11-12T10:02:27.427Z,7.00
2022-11-12T10:05:28.815Z,8.47
2022-11-12T10:08:27.551Z,7.60
2022-11-12T10:12:02.849Z,9.13
2022-11-12T10:15:30.766Z,11.57
2022-11-12T10:18:29.226Z,13.20
2022-11-12T10:21:20.514Z,14.33
2022-11-12T10:24:10.362Z,12.93
2022-11-12T10:26:57.889Z,11.67
2022-11-12T10:29:58.726Z,10.77
2022-11-12T10:32:46.501Z,12.00
2022-11-12T10:35:31.666Z,10.97
2022-11-12T10:38:23.527Z,8.93
2022-11-12T10:41:24.223Z,8.50
2022-11-12T10:44:15.075Z,8.03
2022-11-12T10:47:22.374Z,8.43
2022-11-12T10:50:34.609Z,9.10
2022-11-12T10:53:35.732Z,8.80
2022-11-12T10:56:30.974Z,9.13
2022-11-12T10:59:22.307Z,9.60
2022-11-12T11:02:18.101Z,9.20
2022-11-12T11:05:28.150Z,8.63
2022-11-12T11:08:13.633Z,8.00
2022-11-12T11:11:18.185Z,8.27
2022-11-12T11:14:21.754Z,7.87
2022-11-12T11:17:16.768Z,7.07
2022-11-12T11:20:04.226Z,14.87
2022-11-12T11:23:19.333Z,12.53
2022-11-12T11:26:19.960Z,11.07
2022-11-12T11:29:33.042Z,10.93
2022-11-12T11:32:37.403Z,9.70
2022-11-12T11:35:44.464Z,9.50
2022-11-12T11:38:39.032Z,9.40
2022-11-12T11:41:43.010Z,11.17
2022-11-12T11:44:51.385Z,10.43
2022-11-12T11:48:01.359Z,9.63
2022-11-12T11:51:07.969Z,9.73
2022-11-12T11:54:13.180Z,9.00
2022-11-12T11:57:03.977Z,9.47
2022-11-12T12:00:04.543Z,8.90
2022-11-12T12:03:10.027Z,9.53
2022-11-12T12:06:20.884Z,9.90
2022-11-12T12:09:25.049Z,9.50
2022-11-12T12:12:23.797Z,9.43
2022-11-12T12:15:36.873Z,8.93
2022-11-12T12:18:46.854Z,9.93
2022-11-12T12:21:36.355Z,11.63
2022-11-12T12:24:29.989Z,13.70
2022-11-12T12:27:20.985Z,16.50
2022-11-12T12:30:27.905Z,12.80
2022-11-12T12:33:27.931Z,12.70
2022-11-12T12:36:20.036Z,11.50
2022-11-12T12:39:14.789Z,13.23
2022-11-12T12:42:27.873Z,11.77
2022-11-12T12:45:46.397Z,12.10
2022-11-12T12:48:44.329Z,10.87
2022-11-12T12:51:33.025Z,11.40
2022-11-12T12:54:37.227Z,11.00
2022-11-12T12:57:37.987Z,11.37
2022-11-12T13:00:39.276Z,11.00
2022-11-12T13:03:46.004Z,11.43
2022-11-12T13:06:35.187Z,11.23
2022-11-12T13:09:25.645Z,12.03
2022-11-12T13:12:17.197Z,13.47
2022-11-12T13:15:16.065Z,13.00
2022-11-12T13:18:01.610Z,11.00
2022-11-12T13:21:18.697Z,12.50
2022-11-12T13:24:13.072Z,12.07
2022-11-12T13:27:00.801Z,11.53
2022-11-12T13:29:47.627Z,11.23
2022-11-12T13:32:38.644Z,10.57
2022-11-12T13:35:34.995Z,11.73
2022-11-12T13:38:20.693Z,11.80
2022-11-12T13:41:19.568Z,12.30
2022-11-12T13:44:09.167Z,12.27
2022-11-12T13:46:56.287Z,11.03
2022-11-12T13:49:47.767Z,11.13
2022-11-12T13:52:34.364Z,10.97
2022-11-12T13:55:22.189Z,11.20
2022-11-12T13:58:19.157Z,11.60
2022-11-12T14:01:06.915Z,12.27
2022-11-12T14:03:52.996Z,12.40
2022-11-12T14:06:43.238Z,12.40
2022-11-12T14:09:35.751Z,12.40
2022-11-12T14:12:24.562Z,12.43
2022-11-12T14:15:33.646Z,12.97
2022-11-12T14:18:40.069Z,12.10
2022-11-12T14:21:26.199Z,11.50
2022-11-12T14:24:13.443Z,13.03
2022-11-12T14:26:58.558Z,13.07
2022-11-12T14:29:44.557Z,10.40
2022-11-12T14:32:36.860Z,10.13
2022-11-12T14:35:27.824Z,11.23
2022-11-12T14:38:13.580Z,11.63
2022-11-12T14:41:07.925Z,11.63
2022-11-12T14:44:11.634Z,12.70
2022-11-12T14:46:58.913Z,13.13
2022-11-12T14:49:47.993Z,11.03
2022-11-12T14:52:43.967Z,11.43
2022-11-12T14:55:34.305Z,11.27
2022-11-12T14:58:24.594Z,10.30
2022-11-12T15:04:41.243Z,10.20
2022-11-12T15:07:29.082Z,10.77
2022-11-12T15:10:34.113Z,12.73
2022-11-12T15:13:24.130Z,11.07
2022-11-12T15:16:11.771Z,11.67
2022-11-12T15:19:06.881Z,11.20
2022-11-12T15:21:55.218Z,10.33
2022-11-12T15:24:43.781Z,12.00
2022-11-12T15:27:34.001Z,10.87
2022-11-12T15:30:28.151Z,10.93
2022-11-12T15:33:13.813Z,10.87
2022-11-12T15:36:01.552Z,10.93
2022-11-12T15:38:49.434Z,11.20
2022-11-12T15:41:34.608Z,11.53
2022-11-12T15:44:20.090Z,13.13
2022-11-12T15:47:05.533Z,12.67
2022-11-12T15:49:52.951Z,10.87
2022-11-12T15:52:38.778Z,12.50
2022-11-12T15:55:24.134Z,14.07
2022-11-12T15:58:20.655Z,14.73
2022-11-12T16:01:06.516Z,15.00
2022-11-12T16:03:51.508Z,15.20
2022-11-12T16:06:36.879Z,15.33
2022-11-12T16:09:22.379Z,14.00
2022-11-12T16:12:14.576Z,13.70
2022-11-12T16:15:02.228Z,13.33
2022-11-12T16:17:48.658Z,12.53
2022-11-12T16:20:35.666Z,11.60
2022-11-12T16:23:21.091Z,11.13
2022-11-12T16:26:09.046Z,14.17
2022-11-12T16:28:54.721Z,14.30
2022-11-12T16:31:46.246Z,11.20
2022-11-12T16:34:31.567Z,12.40
2022-11-12T16:37:16.979Z,12.27
2022-11-12T16:40:02.462Z,13.77
2022-11-12T16:42:49.290Z,14.33
2022-11-12T16:45:42.760Z,12.63
2022-11-12T16:48:28.317Z,12.40
2022-11-12T16:51:19.960Z,12.90
2022-11-12T16:54:05.715Z,13.17
2022-11-12T16:56:51.033Z,12.30
2022-11-12T16:59:37.550Z,12.70
2022-11-12T17:02:23.253Z,11.20
2022-11-12T17:05:21.099Z,11.77
2022-11-12T17:08:06.962Z,10.47
2022-11-12T17:10:52.317Z,10.23
2022-11-12T17:13:38.802Z,10.60
2022-11-12T17:16:24.233Z,10.43
2022-11-12T17:19:13.223Z,10.63
2022-11-12T17:21:59.206Z,9.77
2022-11-12T17:24:44.850Z,11.00
2022-11-12T17:27:30.183Z,11.20
2022-11-12T17:30:15.551Z,9.87
2022-11-12T17:33:01.769Z,9.63
2022-11-12T17:35:47.454Z,10.53
2022-11-12T17:38:32.627Z,10.50
2022-11-12T17:41:17.748Z,10.70
2022-11-12T17:44:04.211Z,9.53
2022-11-12T17:46:50.397Z,12.03
2022-11-12T17:49:35.895Z,9.97
2022-11-12T17:52:21.252Z,10.07
2022-11-12T17:55:07.681Z,9.27
2022-11-12T17:57:53.098Z,7.63
2022-11-12T18:00:39.065Z,9.03
2022-11-12T18:03:27.177Z,8.77
2022-11-12T18:06:15.404Z,8.17
2022-11-12T18:09:05.667Z,8.80
2022-11-12T18:11:56.554Z,9.00
2022-11-12T18:14:44.455Z,9.67
2022-11-12T18:17:33.450Z,10.20
2022-11-12T18:20:19.753Z,10.63
2022-11-12T18:23:05.435Z,10.30
2022-11-12T18:25:50.919Z,10.83
2022-11-12T18:28:36.626Z,11.77
2022-11-12T18:31:23.281Z,19.83
2022-11-12T18:34:15.039Z,10.50
2022-11-12T18:37:00.447Z,11.43
2022-11-12T18:39:45.621Z,14.63
2022-11-12T18:42:31.110Z,11.53
2022-11-12T18:45:16.690Z,15.10
2022-11-12T18:48:04.013Z,12.20
2022-11-12T18:50:49.459Z,11.80
2022-11-12T18:53:35.769Z,12.97
2022-11-12T18:56:22.693Z,10.93
2022-11-12T18:59:11.645Z,10.67
2022-11-12T19:02:00.002Z,9.60
2022-11-12T19:04:45.739Z,10.50
2022-11-12T19:07:32.949Z,10.53
2022-11-12T19:10:19.629Z,10.90
2022-11-12T19:13:06.620Z,11.23
2022-11-12T19:15:52.065Z,11.00
2022-11-12T19:18:39.539Z,11.80
2022-11-12T19:21:26.865Z,10.73
2022-11-12T19:24:12.349Z,10.97
2022-11-12T19:26:57.821Z,11.47
2022-11-12T19:29:43.260Z,11.10
2022-11-12T19:32:31.615Z,9.90
2022-11-12T19:35:17.212Z,9.60
2022-11-12T19:38:02.757Z,10.00
2022-11-12T19:40:48.127Z,11.10
2022-11-12T19:43:34.012Z,10.33
2022-11-12T19:46:20.776Z,10.47
2022-11-12T19:49:06.294Z,11.70
2022-11-12T19:51:51.589Z,11.10
2022-11-12T19:54:36.620Z,13.67
2022-11-12T19:57:23.121Z,13.67
2022-11-12T20:00:08.923Z,12.93
2022-11-12T20:02:54.345Z,13.13
2022-11-12T20:05:40.574Z,12.83
2022-11-12T20:08:25.839Z,14.13
2022-11-12T20:11:12.334Z,12.53
2022-11-12T20:13:58.776Z,13.37
2022-11-12T20:16:44.152Z,12.40
2022-11-12T20:19:29.593Z,11.50
2022-11-12T20:22:14.572Z,11.60
2022-11-12T20:25:00.191Z,11.23
2022-11-12T20:27:45.460Z,11.47
2022-11-12T20:30:31.277Z,12.27
2022-11-12T20:33:16.508Z,13.27
2022-11-12T20:36:07.320Z,11.40
2022-11-12T20:38:53.551Z,11.43
2022-11-12T20:41:38.980Z,11.27
2022-11-12T20:44:24.658Z,10.90
2022-11-12T20:47:10.976Z,10.90
2022-11-12T20:49:56.185Z,11.60
2022-11-12T20:52:41.507Z,10.20
2022-11-12T20:55:26.871Z,11.60
2022-11-12T20:58:12.152Z,10.30
2022-11-12T21:00:57.396Z,11.40
2022-11-12T21:03:45.129Z,10.67
2022-11-12T21:06:30.512Z,11.33
2022-11-12T21:09:18.354Z,12.27
2022-11-12T21:12:04.303Z,11.53
2022-11-12T21:14:50.699Z,9.87
2022-11-12T21:17:36.084Z,9.73
2022-11-12T21:20:23.504Z,10.87
2022-11-12T21:23:11.529Z,11.77
2022-11-12T21:26:02.446Z,12.40
2022-11-12T21:28:53.971Z,12.67
2022-11-12T21:31:39.805Z,11.57
2022-11-12T21:34:24.962Z,10.87
2022-11-12T21:37:10.122Z,10.33
2022-11-12T21:39:55.450Z,10.70
2022-11-12T21:42:46.838Z,11.00
2022-11-12T21:45:32.200Z,12.00
2022-11-12T21:48:18.597Z,11.80
2022-11-12T21:51:08.928Z,11.50
2022-11-12T21:53:58.898Z,11.67
2022-11-12T21:56:45.137Z,11.07
2022-11-12T21:59:30.468Z,11.40
2022-11-12T22:02:15.841Z,11.47
2022-11-12T22:05:01.141Z,11.47
2022-11-12T22:07:46.464Z,10.87
2022-11-12T22:10:33.252Z,10.97
2022-11-12T22:13:26.721Z,9.97
2022-11-12T22:16:13.872Z,8.83
2022-11-12T22:19:00.192Z,9.27
2022-11-12T22:21:46.582Z,11.07
2022-11-12T22:24:31.959Z,10.13
2022-11-12T22:27:17.031Z,11.97
2022-11-12T22:30:02.672Z,8.80
2022-11-12T22:32:48.010Z,9.13
2022-11-12T22:35:33.551Z,8.90
2022-11-12T22:38:21.139Z,9.50
2022-11-12T22:41:09.127Z,9.97
2022-11-12T22:43:56.780Z,8.77
2022-11-12T22:46:42.038Z,8.50
2022-11-12T22:49:27.513Z,8.77
2022-11-12T22:52:12.669Z,10.53
2022-11-12T22:54:57.754Z,10.30
2022-11-12T22:57:42.958Z,10.37
2022-11-12T23:00:31.194Z,9.00
2022-11-12T23:03:16.271Z,9.40
2022-11-12T23:06:04.395Z,9.60
2022-11-12T23:08:50.104Z,8.93
2022-11-12T23:11:37.554Z,9.63
2022-11-12T23:14:22.829Z,10.33
2022-11-12T23:17:08.242Z,11.53
2022-11-12T23:19:53.343Z,12.30
2022-11-12T23:22:42.844Z,11.60
2022-11-12T23:25:29.564Z,11.03
2022-11-12T23:28:14.654Z,10.53
2022-11-12T23:31:00.187Z,10.53
2022-11-12T23:33:49.306Z,11.20
2022-11-12T23:36:34.571Z,12.00
2022-11-12T23:39:19.497Z,12.37
2022-11-12T23:42:04.586Z,16.37
2022-11-12T23:44:49.912Z,16.83
2022-11-12T23:47:35.223Z,16.97
2022-11-12T23:50:20.574Z,20.23
2022-11-12T23:53:05.705Z,23.07
2022-11-12T23:55:50.677Z,20.70
2022-11-12T23:58:37.417Z,19.53
